Latest Weather Observations for Gosford

IDN60801

Issued at 5:32 pm EST Monday 25 September 2017 (issued every 30 minutes, with the page automatically refreshed every 10 minutes)

About weather observations | Map of weather stations | Latest weather observations for NSW | Other Formats
Station Details ID: 061425 Name: GOSFORD AWS Lat: -33.44 Lon: 151.36 Height: 7.0 m
Data from the previous 72 hours. | See also: Recent months at Gosford
Date/Time
EST
Temp
°C
App
Temp
°C
Dew
Point
°C
Rel
Hum
%
Delta-T
°C
Wind Press
QNH
hPa
Press
MSL
hPa
Rain since
9am
mm
Dir  Spd
km/h
Gust
km/h
Spd
kts
Gust
kts
25/05:30pm 22.1 16.0 -2.6 19 10.5 WSW 20 32 11 17 - - 0.0
25/05:00pm 22.6 17.6 -1.5 20 10.6 WSW 15 32 8 17 - - 0.0
25/04:30pm 23.4 18.1 -0.8 20 10.8 WSW 17 32 9 17 - - 0.0
25/04:00pm 24.1 18.3 -0.2 20 11.1 W 20 35 11 19 - - 0.0
25/03:30pm 24.7 18.0 -1.2 18 11.6 W 24 39 13 21 - - 0.0
25/03:00pm 24.9 18.7 -0.3 19 11.5 WNW 22 35 12 19 - - 0.0
25/02:30pm 25.2 19.5 0.7 20 11.4 WNW 20 30 11 16 - - 0.0
25/02:00pm 25.5 21.3 1.6 21 11.4 WNW 13 22 7 12 - - 0.0
25/01:30pm 25.5 21.6 0.9 20 11.5 WNW 11 19 6 10 - - 0.0
25/01:00pm 26.0 21.7 1.3 20 11.7 W 13 20 7 11 - - 0.0
25/12:30pm 25.6 21.0 1.7 21 11.4 W 15 26 8 14 - - 0.0
25/12:00pm 26.4 20.8 0.9 19 12.1 W 20 30 11 16 - - 0.0
25/11:30am 25.9 21.4 1.9 21 11.5 W 15 28 8 15 - - 0.0
25/11:00am 25.3 21.2 2.1 22 11.1 W 13 26 7 14 - - 0.0
25/10:30am 24.9 19.4 1.7 22 11.0 W 20 32 11 17 - - 0.0
25/10:00am 24.3 18.7 1.2 22 10.8 WNW 20 32 11 17 - - 0.0
25/09:30am 23.8 18.8 1.4 23 10.5 W 17 22 9 12 - - 0.0
25/09:00am 23.5 19.2 1.2 23 10.4 W 13 20 7 11 - - 0.0
25/08:30am 22.9 18.6 1.3 24 10.0 WNW 13 19 7 10 - - 0.0
25/08:00am 21.9 18.2 2.1 27 9.3 NW 11 19 6 10 - - 0.0
25/07:30am 18.3 17.5 8.0 51 5.3 ESE 2 7 1 4 - - 0.0
25/07:00am 14.7 14.7 9.9 73 2.5 CALM 0 0 0 0 - - 0.0
25/06:30am 11.5 11.1 8.2 80 1.6 CALM 0 0 0 0 - - 0.0
25/06:00am 10.4 9.8 7.6 83 1.3 CALM 0 2 0 1 - - 0.0
25/05:30am 10.4 9.6 6.7 78 1.7 CALM 0 0 0 0 - - 0.0
25/05:00am 10.9 10.2 6.8 76 1.9 CALM 0 0 0 0 - - 0.0
25/04:30am 11.2 10.5 7.1 76 2.0 CALM 0 0 0 0 - - 0.0
25/04:00am 10.9 9.9 7.2 78 1.8 NE 2 4 1 2 - - 0.0
25/03:30am 11.1 10.4 7.0 76 2.0 CALM 0 0 0 0 - - 0.0
25/03:00am 11.8 11.2 7.5 75 2.1 CALM 0 0 0 0 - - 0.0
25/02:30am 12.2 11.7 7.7 74 2.2 CALM 0 0 0 0 - - 0.0
25/02:00am 12.6 12.1 7.9 73 2.3 CALM 0 0 0 0 - - 0.0
25/01:30am 12.6 12.2 8.1 74 2.2 CALM 0 0 0 0 - - 0.0
25/01:00am 13.3 13.2 9.4 77 2.0 CALM 0 6 0 3 - - 0.0
25/12:30am 13.3 13.3 9.9 80 1.7 CALM 0 0 0 0 - - 0.0
25/12:00am 14.0 13.8 9.2 73 2.4 CALM 0 2 0 1 - - 0.0
 
Date/Time
EST
Temp
°C
App
Temp
°C
Dew
Point
°C
Rel
Hum
%
Delta-T
°C
Wind Press
QNH
hPa
Press
MSL
hPa
Rain since
9am
mm
Dir  Spd
km/h
Gust
km/h
Spd
kts
Gust
kts
24/11:30pm 14.3 14.4 10.1 76 2.2 CALM 0 0 0 0 - - 0.0
24/11:00pm 14.9 15.0 10.3 74 2.4 CALM 0 2 0 1 - - 0.0
24/10:30pm 15.4 15.7 11.0 75 2.3 CALM 0 0 0 0 - - 0.0
24/10:00pm 16.0 16.4 11.2 73 2.6 CALM 0 0 0 0 - - 0.0
24/09:30pm 16.4 16.8 11.1 71 2.8 CALM 0 0 0 0 - - 0.0
24/09:00pm 17.4 17.4 11.0 66 3.4 NNE 2 2 1 1 - - 0.0
24/08:30pm 18.1 18.4 11.0 63 3.8 CALM 0 2 0 1 - - 0.0
24/08:00pm 19.9 20.1 11.9 60 4.4 ENE 2 6 1 3 - - 0.0
24/07:30pm 20.2 20.6 11.4 57 4.8 CALM 0 4 0 2 - - 0.0
24/07:00pm 21.2 21.2 11.2 53 5.5 E 2 6 1 3 - - 0.0
24/06:30pm 22.8 21.7 8.5 40 7.6 ENE 4 7 2 4 - - 0.0
24/06:00pm 26.6 23.6 1.8 20 11.9 W 7 11 4 6 - - 0.0
24/05:30pm 28.0 24.2 1.5 18 12.8 WNW 11 19 6 10 - - 0.0
24/05:00pm 28.9 24.7 1.4 17 13.3 WNW 13 20 7 11 - - 0.0
24/04:30pm 29.2 24.3 1.7 17 13.4 WNW 17 26 9 14 - - 0.0
24/04:00pm 29.1 23.9 2.4 18 13.2 W 19 33 10 18 - - 0.0
24/03:30pm 29.3 23.4 1.7 17 13.5 W 22 39 12 21 - - 0.0
24/03:00pm 29.8 24.1 2.9 18 13.5 W 22 32 12 17 - - 0.0
24/02:30pm 30.2 25.0 3.3 18 13.6 W 20 37 11 20 - - 0.0
24/02:00pm 30.9 25.6 3.0 17 14.1 W 20 32 11 17 - - 0.0
24/01:30pm 29.9 24.5 2.2 17 13.7 W 20 37 11 20 - - 0.0
24/01:05pm 29.4 22.2 1.0 16 13.7 WNW 28 48 15 26 - - 0.0
24/01:00pm 29.8 24.1 2.9 18 13.5 WNW 22 33 12 18 - - 0.0
24/12:30pm 30.2 25.1 4.0 19 13.4 W 20 32 11 17 - - 0.0
24/12:00pm 29.3 25.2 6.0 23 12.3 WSW 17 22 9 12 - - 0.0
24/11:30am 30.6 25.6 3.6 18 13.8 W 19 33 10 18 - - 0.0
24/11:00am 31.1 25.5 3.2 17 14.2 W 22 32 12 17 - - 0.0
24/10:30am 32.1 25.7 3.1 16 14.8 W 26 46 14 25 - - 0.0
24/10:25am 32.3 25.4 2.4 15 15.1 WNW 28 46 15 25 - - 0.0
24/10:00am 32.7 26.0 1.7 14 15.5 WNW 26 39 14 21 - - 0.0
24/09:30am 32.5 27.1 2.5 15 15.2 WNW 20 33 11 18 - - 0.0
24/09:00am 32.2 27.9 1.3 14 15.3 NW 13 24 7 13 - - 0.0
24/08:30am 31.0 25.4 1.4 15 14.6 NW 20 39 11 21 - - 0.0
24/08:00am 30.9 24.6 1.3 15 14.5 NW 24 39 13 21 - - 0.0
24/07:30am 30.8 23.1 0.2 14 14.7 WNW 30 50 16 27 - - 0.0
24/07:01am 30.5 22.6 1.0 15 14.4 WNW 32 50 17 27 - - 0.0
24/07:00am 30.5 22.6 1.0 15 14.4 WNW 32 50 17 27 - - 0.0
24/06:55am 30.3 23.1 0.8 15 14.3 WNW 28 50 15 27 - - 0.0
24/06:30am 29.9 24.4 0.5 15 14.1 NW 19 32 10 17 - - 0.0
24/06:00am 30.0 22.8 0.6 15 14.2 WNW 28 41 15 22 - - 0.0
24/05:42am 30.2 23.2 -0.2 14 14.5 WNW 26 48 14 26 - - 0.0
24/05:30am 30.5 24.0 0.0 14 14.6 NW 24 35 13 19 - - 0.0
24/05:00am 30.6 24.8 0.1 14 14.6 NW 20 37 11 20 - - 0.0
24/04:30am 30.6 25.0 0.1 14 14.6 NW 19 35 10 19 - - 0.0
24/04:00am 31.0 25.5 0.4 14 14.8 NW 19 32 10 17 - - 0.0
24/03:30am 30.9 25.7 0.3 14 14.8 NW 17 35 9 19 - - 0.0
24/03:00am 30.3 24.3 0.8 15 14.3 WNW 22 33 12 18 - - 0.0
24/02:58am 30.3 24.4 1.7 16 14.1 WNW 22 33 12 18 - - 0.0
24/02:30am 25.2 23.4 5.4 28 10.1 N 4 19 2 10 - - 0.0
24/02:00am 21.4 20.4 5.7 36 7.8 CALM 0 6 0 3 - - 0.0
24/01:30am 25.0 21.7 4.7 27 10.2 NE 11 15 6 8 - - 0.0
24/01:00am 24.6 22.0 4.4 27 10.1 NE 7 11 4 6 - - 0.0
24/12:30am 26.4 23.8 4.2 24 11.1 NE 7 17 4 9 - - 0.0
24/12:00am 28.0 25.3 3.7 21 12.2 NE 7 13 4 7 - - 0.0
 
Date/Time
EST
Temp
°C
App
Temp
°C
Dew
Point
°C
Rel
Hum
%
Delta-T
°C
Wind Press
QNH
hPa
Press
MSL
hPa
Rain since
9am
mm
Dir  Spd
km/h
Gust
km/h
Spd
kts
Gust
kts
23/11:30pm 27.0 24.1 4.7 24 11.3 NNE 9 20 5 11 - - 0.0
23/11:00pm 23.6 21.6 4.5 29 9.5 N 4 9 2 5 - - 0.0
23/10:56pm 23.8 21.5 4.7 29 9.5 NNE 6 11 3 6 - - 0.0
23/10:30pm 28.9 25.8 3.7 20 12.7 NE 9 19 5 10 - - 0.0
23/10:00pm 29.3 25.9 4.0 20 12.9 ENE 11 22 6 12 - - 0.0
23/09:30pm 27.7 25.2 4.7 23 11.7 ENE 7 13 4 7 - - 0.0
23/09:00pm 29.3 26.5 3.3 19 13.1 NE 7 20 4 11 - - 0.0
23/08:30pm 29.3 26.7 3.3 19 13.1 NNE 6 15 3 8 - - 0.0
23/08:00pm 27.9 25.6 5.5 24 11.6 NNE 7 11 4 6 - - 0.0
23/07:30pm 24.0 22.4 8.0 36 8.5 NE 6 11 3 6 - - 0.0
23/07:00pm 25.4 24.1 7.5 32 9.5 NE 4 9 2 5 - - 0.0
23/06:30pm 26.5 24.7 7.0 29 10.3 NE 6 9 3 5 - - 0.0
23/06:00pm 27.1 25.7 9.0 32 9.9 NE 6 11 3 6 - - 0.0
23/05:30pm 27.6 26.4 9.4 32 10.1 ENE 6 9 3 5 - - 0.0
23/05:00pm 29.1 27.5 8.7 28 11.2 NE 7 11 4 6 - - 0.0
23/04:30pm 29.3 27.4 8.9 28 11.3 NE 9 15 5 8 - - 0.0
23/04:00pm 29.4 25.7 7.9 26 11.7 NE 17 26 9 14 - - 0.0
23/03:30pm 31.3 27.6 6.4 21 13.4 ENE 15 22 8 12 - - 0.0
23/03:00pm 32.8 28.9 5.4 18 14.6 ENE 15 28 8 15 - - 0.0
23/02:30pm 33.6 29.3 5.2 17 15.1 ENE 17 28 9 15 - - 0.0
23/02:00pm 33.1 29.6 5.6 18 14.7 NE 13 24 7 13 - - 0.0
23/01:30pm 32.3 29.2 5.7 19 14.2 NE 11 19 6 10 - - 0.0
23/01:00pm 31.1 28.9 5.5 20 13.5 NE 6 9 3 5 - - 0.0
23/12:30pm 28.3 25.5 5.2 23 11.9 NNE 9 15 5 8 - - 0.0
23/12:00pm 27.9 24.4 3.6 21 12.2 NNE 11 19 6 10 - - 0.0
23/11:30am 28.8 24.7 2.1 18 13.1 N 13 20 7 11 - - 0.0
23/11:00am 26.2 23.3 2.8 22 11.4 NE 7 13 4 7 - - 0.0
23/10:30am 25.8 22.6 3.1 23 11.1 NE 9 15 5 8 - - 0.0
23/10:21am 25.6 22.5 3.6 24 10.9 NNE 9 15 5 8 - - 0.0
23/10:00am 20.6 20.6 11.0 54 5.3 N 2 11 1 6 - - 0.0
23/09:30am 20.2 19.4 9.5 50 5.7 WSW 4 7 2 4 - - 0.0
23/09:00am 20.5 19.4 10.0 51 5.6 NE 6 9 3 5 - - 0.0
23/08:30am 17.7 17.4 10.1 61 4.0 SW 2 6 1 3 - - 0.0
23/08:00am 16.8 16.8 9.7 63 3.7 CALM 0 6 0 3 - - 0.0
23/07:30am 15.6 15.5 9.3 66 3.2 CALM 0 0 0 0 - - 0.0
23/07:00am 13.8 13.8 9.8 77 2.1 CALM 0 0 0 0 - - 0.0
23/06:30am 11.4 11.0 8.4 82 1.5 CALM 0 0 0 0 - - 0.0
23/06:00am 10.7 10.1 7.6 81 1.5 CALM 0 0 0 0 - - 0.0
23/05:30am 10.9 10.4 7.8 81 1.5 CALM 0 0 0 0 - - 0.0
23/05:00am 11.9 11.5 8.2 78 1.8 CALM 0 0 0 0 - - 0.0
23/04:30am 12.1 11.7 8.4 78 1.8 CALM 0 0 0 0 - - 0.0
23/04:00am 12.3 11.9 8.2 76 2.0 CALM 0 0 0 0 - - 0.0
23/03:30am 12.8 12.5 8.7 76 2.0 CALM 0 0 0 0 - - 0.0
23/03:00am 13.0 12.8 9.1 77 2.0 CALM 0 0 0 0 - - 0.0
23/02:30am 13.6 12.7 9.1 74 2.3 NE 4 6 2 3 - - 0.0
23/02:00am 12.9 12.4 9.2 78 1.9 S 2 6 1 3 - - 0.0
23/01:30am 13.2 12.5 8.5 73 2.3 NW 2 4 1 2 - - 0.0
23/01:00am 13.1 12.6 8.0 71 2.5 CALM 0 0 0 0 - - 0.0
23/12:30am 13.9 13.6 8.7 71 2.6 CALM 0 0 0 0 - - 0.0
23/12:00am 14.0 13.7 8.6 70 2.7 CALM 0 2 0 1 - - 0.0
 
Date/Time
EST
Temp
°C
App
Temp
°C
Dew
Point
°C
Rel
Hum
%
Delta-T
°C
Wind Press
QNH
hPa
Press
MSL
hPa
Rain since
9am
mm
Dir  Spd
km/h
Gust
km/h
Spd
kts
Gust
kts
22/11:30pm 15.3 14.5 8.1 62 3.6 NNE 2 4 1 2 - - 0.0
22/11:00pm 15.0 13.7 7.5 61 3.7 NE 4 9 2 5 - - 0.0
22/10:30pm 16.6 16.0 7.3 54 4.6 CALM 0 0 0 0 - - 0.0
22/10:00pm 17.9 16.8 7.0 49 5.4 NNE 2 6 1 3 - - 0.0
22/09:30pm 18.8 17.6 6.6 45 6.1 NE 2 4 1 2 - - 0.0
22/09:00pm 21.7 19.6 5.6 35 8.0 N 6 13 3 7 - - 0.0
22/08:30pm 22.3 19.9 5.3 33 8.5 N 7 13 4 7 - - 0.0
22/08:00pm 22.9 19.6 4.4 30 9.1 NNE 11 22 6 12 - - 0.0
22/07:30pm 22.7 19.8 4.7 31 8.9 NNE 9 20 5 11 - - 0.0
22/07:00pm 22.7 20.0 5.6 33 8.6 NNE 9 19 5 10 - - 0.0
22/06:30pm 23.1 20.5 6.0 33 8.7 NNE 9 19 5 10 - - 0.0
22/06:00pm 22.6 21.4 8.0 39 7.7 ENE 4 9 2 5 - - 0.0

Other Formats:

Comma delimited format used in spreadsheet applications
http://www.bom.gov.au/fwo/IDN60801/IDN60801.94782.axf

JavaScript Object Notation format (JSON) in row-major order
http://www.bom.gov.au/fwo/IDN60801/IDN60801.94782.json